CNF3 weather

Pendleton Airport
Pendleton, Ontario, Canada

Public forecast

Using degrees Celsius for public forecast. Weather courtesy of forecast.io.

Closest aviation weather report (METAR) to Pendleton Airport

Report is more than 2 hours old.

Closest report is Ottawa / Gatineau Airport, 19.8 nm (36.6 km) W. Retrieved 2020/06/03 01:00 UTC (6 hours ago):

CYND 030100Z 18004KT 160V230 15SM OVC024 15/11 A2975 RMK SC8 LAST STFD OBS/NEXT 031100Z SLP078 DENSITY ALT 500FT

Closest aviation forecast (TAF) to Pendleton Airport

Forecast is more than 12 hours old.

Closest forecast is Ottawa / Gatineau Airport, 19.8 nm (36.6 km) W. Retrieved 2020/06/02 18:00 UTC (13 hours ago):

TAF CYND 021738Z 0218/0301 08007KT P6SM SCT030 OVC070 TEMPO 0218/0220 P6SM -SHRA BKN030 OVC070 FM022000 14005KT P6SM SCT020 OVC040 TEMPO 0220/0301 23008KT P6SM -RA BKN020 OVC040 RMK NXT FCST WILL BE ISSUED AT 031245Z